sensor_id;sensor_type;location;lat;lon;timestamp;temperature;humidity
7762;DHT22;3925;48.636;9.516;2023-03-14T00:01:39;10.40;99.90
7762;DHT22;3925;48.636;9.516;2023-03-14T00:04:06;10.40;99.90
7762;DHT22;3925;48.636;9.516;2023-03-14T00:06:34;10.40;99.90
7762;DHT22;3925;48.636;9.516;2023-03-14T00:09:03;10.40;99.90
7762;DHT22;3925;48.636;9.516;2023-03-14T00:11:30;10.40;99.90
7762;DHT22;3925;48.636;9.516;2023-03-14T00:13:56;10.40;99.90
7762;DHT22;3925;48.636;9.516;2023-03-14T00:16:25;10.40;99.90
7762;DHT22;3925;48.636;9.516;2023-03-14T00:18:52;10.40;99.90
7762;DHT22;3925;48.636;9.516;2023-03-14T00:21:19;10.50;99.90
7762;DHT22;3925;48.636;9.516;2023-03-14T00:23:46;10.50;99.90
7762;DHT22;3925;48.636;9.516;2023-03-14T00:26:16;10.40;99.90
7762;DHT22;3925;48.636;9.516;2023-03-14T00:28:43;10.40;99.90
7762;DHT22;3925;48.636;9.516;2023-03-14T00:31:12;10.40;99.90
7762;DHT22;3925;48.636;9.516;2023-03-14T00:33:39;10.40;99.90
7762;DHT22;3925;48.636;9.516;2023-03-14T00:36:08;10.40;99.90
7762;DHT22;3925;48.636;9.516;2023-03-14T00:38:36;10.30;99.90
7762;DHT22;3925;48.636;9.516;2023-03-14T00:41:03;10.20;99.90
7762;DHT22;3925;48.636;9.516;2023-03-14T00:43:31;10.30;99.90
7762;DHT22;3925;48.636;9.516;2023-03-14T00:45:58;10.40;99.90
7762;DHT22;3925;48.636;9.516;2023-03-14T00:48:25;10.50;99.90
7762;DHT22;3925;48.636;9.516;2023-03-14T00:50:52;10.50;99.90
7762;DHT22;3925;48.636;9.516;2023-03-14T00:53:19;10.60;99.90
7762;DHT22;3925;48.636;9.516;2023-03-14T00:55:46;10.50;99.90
7762;DHT22;3925;48.636;9.516;2023-03-14T00:58:14;10.50;99.90
7762;DHT22;3925;48.636;9.516;2023-03-14T01:00:43;10.50;99.90
7762;DHT22;3925;48.636;9.516;2023-03-14T01:03:11;10.50;99.90
7762;DHT22;3925;48.636;9.516;2023-03-14T01:05:38;10.50;99.90
7762;DHT22;3925;48.636;9.516;2023-03-14T01:08:05;10.50;99.90
7762;DHT22;3925;48.636;9.516;2023-03-14T01:10:33;10.50;99.90
7762;DHT22;3925;48.636;9.516;2023-03-14T01:13:00;10.50;99.90
7762;DHT22;3925;48.636;9.516;2023-03-14T01:15:26;10.50;99.90
7762;DHT22;3925;48.636;9.516;2023-03-14T01:17:55;10.50;99.90
7762;DHT22;3925;48.636;9.516;2023-03-14T01:20:21;10.60;99.90
7762;DHT22;3925;48.636;9.516;2023-03-14T01:22:48;10.50;99.90
7762;DHT22;3925;48.636;9.516;2023-03-14T01:25:17;10.50;99.90
7762;DHT22;3925;48.636;9.516;2023-03-14T01:27:44;10.50;99.90
7762;DHT22;3925;48.636;9.516;2023-03-14T01:30:12;10.50;99.90
7762;DHT22;3925;48.636;9.516;2023-03-14T01:32:39;10.50;99.90
7762;DHT22;3925;48.636;9.516;2023-03-14T01:35:07;10.50;99.90
7762;DHT22;3925;48.636;9.516;2023-03-14T01:37:34;10.40;99.90
7762;DHT22;3925;48.636;9.516;2023-03-14T01:40:01;10.40;99.90
7762;DHT22;3925;48.636;9.516;2023-03-14T01:42:29;10.40;99.90
7762;DHT22;3925;48.636;9.516;2023-03-14T01:44:57;10.40;99.90
7762;DHT22;3925;48.636;9.516;2023-03-14T01:47:24;10.40;99.90
7762;DHT22;3925;48.636;9.516;2023-03-14T01:49:54;10.50;99.90
7762;DHT22;3925;48.636;9.516;2023-03-14T01:52:26;10.50;99.90
7762;DHT22;3925;48.636;9.516;2023-03-14T01:54:57;10.60;99.90
7762;DHT22;3925;48.636;9.516;2023-03-14T01:57:29;10.60;99.90
7762;DHT22;3925;48.636;9.516;2023-03-14T02:00:00;10.70;99.90
7762;DHT22;3925;48.636;9.516;2023-03-14T02:02:27;10.60;99.90
7762;DHT22;3925;48.636;9.516;2023-03-14T02:04:56;10.60;99.90
7762;DHT22;3925;48.636;9.516;2023-03-14T02:07:30;10.60;99.90
7762;DHT22;3925;48.636;9.516;2023-03-14T02:10:01;10.50;99.90
7762;DHT22;3925;48.636;9.516;2023-03-14T02:12:30;10.50;99.90
7762;DHT22;3925;48.636;9.516;2023-03-14T02:14:56;10.50;99.90
7762;DHT22;3925;48.636;9.516;2023-03-14T02:17:24;10.50;99.90
7762;DHT22;3925;48.636;9.516;2023-03-14T02:20:03;10.50;99.90
7762;DHT22;3925;48.636;9.516;2023-03-14T02:22:34;10.40;99.90
7762;DHT22;3925;48.636;9.516;2023-03-14T02:25:07;10.50;99.90
7762;DHT22;3925;48.636;9.516;2023-03-14T02:27:36;10.50;99.90
7762;DHT22;3925;48.636;9.516;2023-03-14T02:30:08;10.40;99.90
7762;DHT22;3925;48.636;9.516;2023-03-14T02:32:38;10.40;99.90
7762;DHT22;3925;48.636;9.516;2023-03-14T02:35:08;10.60;99.90
7762;DHT22;3925;48.636;9.516;2023-03-14T02:37:40;10.60;99.90
7762;DHT22;3925;48.636;9.516;2023-03-14T02:40:09;10.50;99.90
7762;DHT22;3925;48.636;9.516;2023-03-14T02:42:37;10.60;99.90
7762;DHT22;3925;48.636;9.516;2023-03-14T02:48:07;10.60;99.90
7762;DHT22;3925;48.636;9.516;2023-03-14T02:50:34;10.50;99.90
7762;DHT22;3925;48.636;9.516;2023-03-14T02:53:01;10.50;99.90
7762;DHT22;3925;48.636;9.516;2023-03-14T02:55:28;10.60;99.90
7762;DHT22;3925;48.636;9.516;2023-03-14T02:57:56;10.60;99.90
7762;DHT22;3925;48.636;9.516;2023-03-14T03:00:23;10.70;99.90
7762;DHT22;3925;48.636;9.516;2023-03-14T03:02:50;10.70;99.90
7762;DHT22;3925;48.636;9.516;2023-03-14T03:05:17;10.70;99.90
7762;DHT22;3925;48.636;9.516;2023-03-14T03:07:44;10.70;99.90
7762;DHT22;3925;48.636;9.516;2023-03-14T03:10:11;10.70;99.90
7762;DHT22;3925;48.636;9.516;2023-03-14T03:12:38;10.70;99.90
7762;DHT22;3925;48.636;9.516;2023-03-14T03:15:07;10.70;99.90
7762;DHT22;3925;48.636;9.516;2023-03-14T03:17:34;10.70;99.90
7762;DHT22;3925;48.636;9.516;2023-03-14T03:20:01;10.70;99.90
7762;DHT22;3925;48.636;9.516;2023-03-14T03:22:30;10.70;99.90
7762;DHT22;3925;48.636;9.516;2023-03-14T03:24:57;10.60;99.90
7762;DHT22;3925;48.636;9.516;2023-03-14T03:27:23;10.70;99.90
7762;DHT22;3925;48.636;9.516;2023-03-14T03:29:50;10.70;99.90
7762;DHT22;3925;48.636;9.516;2023-03-14T03:32:19;10.60;99.90
7762;DHT22;3925;48.636;9.516;2023-03-14T03:34:45;10.60;99.90
7762;DHT22;3925;48.636;9.516;2023-03-14T03:37:12;10.60;99.90
7762;DHT22;3925;48.636;9.516;2023-03-14T03:39:39;10.60;99.90
7762;DHT22;3925;48.636;9.516;2023-03-14T03:42:06;10.60;99.90
7762;DHT22;3925;48.636;9.516;2023-03-14T03:44:33;10.50;99.90
7762;DHT22;3925;48.636;9.516;2023-03-14T03:47:00;10.50;99.90
7762;DHT22;3925;48.636;9.516;2023-03-14T03:49:30;10.50;99.90
7762;DHT22;3925;48.636;9.516;2023-03-14T03:51:57;10.40;99.90
7762;DHT22;3925;48.636;9.516;2023-03-14T03:54:24;10.40;99.90
7762;DHT22;3925;48.636;9.516;2023-03-14T03:56:51;10.40;99.90
7762;DHT22;3925;48.636;9.516;2023-03-14T03:59:18;10.40;99.90
7762;DHT22;3925;48.636;9.516;2023-03-14T04:01:46;10.40;99.90
7762;DHT22;3925;48.636;9.516;2023-03-14T04:04:13;10.30;99.90
7762;DHT22;3925;48.636;9.516;2023-03-14T04:06:42;10.40;99.90
7762;DHT22;3925;48.636;9.516;2023-03-14T04:09:09;10.30;99.90
7762;DHT22;3925;48.636;9.516;2023-03-14T04:11:36;10.20;99.90
7762;DHT22;3925;48.636;9.516;2023-03-14T04:14:03;10.30;99.90
7762;DHT22;3925;48.636;9.516;2023-03-14T04:16:30;10.20;99.90
7762;DHT22;3925;48.636;9.516;2023-03-14T04:18:58;10.20;99.90
7762;DHT22;3925;48.636;9.516;2023-03-14T04:21:24;10.20;99.90
7762;DHT22;3925;48.636;9.516;2023-03-14T04:23:53;10.20;99.90
7762;DHT22;3925;48.636;9.516;2023-03-14T04:26:20;10.20;99.90
7762;DHT22;3925;48.636;9.516;2023-03-14T04:28:47;10.10;99.90
7762;DHT22;3925;48.636;9.516;2023-03-14T04:31:18;10.20;99.90
7762;DHT22;3925;48.636;9.516;2023-03-14T04:33:45;10.20;99.90
7762;DHT22;3925;48.636;9.516;2023-03-14T04:36:12;10.20;99.90
7762;DHT22;3925;48.636;9.516;2023-03-14T04:38:39;10.20;99.90
7762;DHT22;3925;48.636;9.516;2023-03-14T04:41:07;10.20;99.90
7762;DHT22;3925;48.636;9.516;2023-03-14T04:43:34;10.20;99.90
7762;DHT22;3925;48.636;9.516;2023-03-14T04:46:01;10.20;99.90
7762;DHT22;3925;48.636;9.516;2023-03-14T04:48:28;10.20;99.90
7762;DHT22;3925;48.636;9.516;2023-03-14T04:50:55;10.30;99.90
7762;DHT22;3925;48.636;9.516;2023-03-14T04:53:22;10.30;99.90
7762;DHT22;3925;48.636;9.516;2023-03-14T04:55:49;10.20;99.90
7762;DHT22;3925;48.636;9.516;2023-03-14T04:58:18;10.20;99.90
7762;DHT22;3925;48.636;9.516;2023-03-14T05:00:45;10.30;99.90
7762;DHT22;3925;48.636;9.516;2023-03-14T05:03:13;10.30;99.90
7762;DHT22;3925;48.636;9.516;2023-03-14T05:05:40;10.30;99.90
7762;DHT22;3925;48.636;9.516;2023-03-14T05:08:07;10.20;99.90
7762;DHT22;3925;48.636;9.516;2023-03-14T05:10:34;10.20;99.90
7762;DHT22;3925;48.636;9.516;2023-03-14T05:13:01;10.20;99.90
7762;DHT22;3925;48.636;9.516;2023-03-14T05:15:30;10.20;99.90
7762;DHT22;3925;48.636;9.516;2023-03-14T05:17:57;10.20;99.90
7762;DHT22;3925;48.636;9.516;2023-03-14T05:20:23;10.20;99.90
7762;DHT22;3925;48.636;9.516;2023-03-14T05:22:50;10.30;99.90
7762;DHT22;3925;48.636;9.516;2023-03-14T05:25:17;10.30;99.90
7762;DHT22;3925;48.636;9.516;2023-03-14T05:27:44;10.30;99.90
7762;DHT22;3925;48.636;9.516;2023-03-14T05:30:11;10.30;99.90
7762;DHT22;3925;48.636;9.516;2023-03-14T05:32:40;10.20;99.90
7762;DHT22;3925;48.636;9.516;2023-03-14T05:35:07;10.30;99.90
7762;DHT22;3925;48.636;9.516;2023-03-14T05:37:34;10.30;99.90
7762;DHT22;3925;48.636;9.516;2023-03-14T05:40:01;10.20;99.90
7762;DHT22;3925;48.636;9.516;2023-03-14T05:42:30;10.20;99.90
7762;DHT22;3925;48.636;9.516;2023-03-14T05:44:57;10.30;99.90
7762;DHT22;3925;48.636;9.516;2023-03-14T05:47:24;10.20;99.90
7762;DHT22;3925;48.636;9.516;2023-03-14T05:49:52;10.30;99.90
7762;DHT22;3925;48.636;9.516;2023-03-14T05:52:20;10.30;99.90
7762;DHT22;3925;48.636;9.516;2023-03-14T05:54:47;10.30;99.90
7762;DHT22;3925;48.636;9.516;2023-03-14T05:57:14;10.20;99.90
7762;DHT22;3925;48.636;9.516;2023-03-14T05:59:41;10.30;99.90
7762;DHT22;3925;48.636;9.516;2023-03-14T06:02:08;10.30;99.90
7762;DHT22;3925;48.636;9.516;2023-03-14T06:04:35;10.30;99.90
7762;DHT22;3925;48.636;9.516;2023-03-14T06:07:03;10.30;99.90
7762;DHT22;3925;48.636;9.516;2023-03-14T06:09:30;10.20;99.90
7762;DHT22;3925;48.636;9.516;2023-03-14T06:11:57;10.30;99.90
7762;DHT22;3925;48.636;9.516;2023-03-14T06:14:23;10.20;99.90
7762;DHT22;3925;48.636;9.516;2023-03-14T06:16:50;10.20;99.90
7762;DHT22;3925;48.636;9.516;2023-03-14T06:19:18;10.30;99.90
7762;DHT22;3925;48.636;9.516;2023-03-14T06:21:45;10.30;99.90
7762;DHT22;3925;48.636;9.516;2023-03-14T06:24:13;10.40;99.90
7762;DHT22;3925;48.636;9.516;2023-03-14T06:26:40;10.40;99.90
7762;DHT22;3925;48.636;9.516;2023-03-14T06:29:06;10.50;99.90
7762;DHT22;3925;48.636;9.516;2023-03-14T06:31:34;10.60;99.90
7762;DHT22;3925;48.636;9.516;2023-03-14T06:34:01;10.50;99.90
7762;DHT22;3925;48.636;9.516;2023-03-14T06:36:27;10.50;99.90
7762;DHT22;3925;48.636;9.516;2023-03-14T06:38:54;10.60;99.90
7762;DHT22;3925;48.636;9.516;2023-03-14T06:41:23;10.60;99.90
7762;DHT22;3925;48.636;9.516;2023-03-14T06:43:51;10.60;99.90
7762;DHT22;3925;48.636;9.516;2023-03-14T06:46:18;10.70;99.90
7762;DHT22;3925;48.636;9.516;2023-03-14T06:48:45;10.60;99.90
7762;DHT22;3925;48.636;9.516;2023-03-14T06:51:12;10.60;99.90
7762;DHT22;3925;48.636;9.516;2023-03-14T06:53:38;10.60;99.90
7762;DHT22;3925;48.636;9.516;2023-03-14T06:56:06;10.70;99.90
7762;DHT22;3925;48.636;9.516;2023-03-14T06:58:35;10.70;99.90
7762;DHT22;3925;48.636;9.516;2023-03-14T07:01:02;10.70;99.90
7762;DHT22;3925;48.636;9.516;2023-03-14T07:03:29;10.70;99.90
7762;DHT22;3925;48.636;9.516;2023-03-14T07:05:56;10.70;99.90
7762;DHT22;3925;48.636;9.516;2023-03-14T07:08:22;10.70;99.90
7762;DHT22;3925;48.636;9.516;2023-03-14T07:10:49;10.70;99.90
7762;DHT22;3925;48.636;9.516;2023-03-14T07:13:17;10.70;99.90
7762;DHT22;3925;48.636;9.516;2023-03-14T07:15:45;10.80;99.90
7762;DHT22;3925;48.636;9.516;2023-03-14T07:18:12;11.00;99.90
7762;DHT22;3925;48.636;9.516;2023-03-14T07:20:38;11.40;99.90
7762;DHT22;3925;48.636;9.516;2023-03-14T07:23:05;11.50;99.90
7762;DHT22;3925;48.636;9.516;2023-03-14T07:25:32;11.60;99.90
7762;DHT22;3925;48.636;9.516;2023-03-14T07:27:59;11.60;99.90
7762;DHT22;3925;48.636;9.516;2023-03-14T07:30:26;11.70;99.90
7762;DHT22;3925;48.636;9.516;2023-03-14T07:32:54;11.80;99.90
7762;DHT22;3925;48.636;9.516;2023-03-14T07:35:22;11.80;99.90
7762;DHT22;3925;48.636;9.516;2023-03-14T07:37:49;11.90;99.90
7762;DHT22;3925;48.636;9.516;2023-03-14T07:40:16;11.90;99.90
7762;DHT22;3925;48.636;9.516;2023-03-14T07:42:43;11.80;99.90
7762;DHT22;3925;48.636;9.516;2023-03-14T07:45:10;12.00;99.90
7762;DHT22;3925;48.636;9.516;2023-03-14T07:47:37;12.30;99.90
7762;DHT22;3925;48.636;9.516;2023-03-14T07:50:07;12.80;99.90
7762;DHT22;3925;48.636;9.516;2023-03-14T07:52:34;14.00;99.90
7762;DHT22;3925;48.636;9.516;2023-03-14T07:55:01;15.30;99.90
7762;DHT22;3925;48.636;9.516;2023-03-14T07:57:27;16.80;99.90
7762;DHT22;3925;48.636;9.516;2023-03-14T07:59:54;17.30;97.10
7762;DHT22;3925;48.636;9.516;2023-03-14T08:02:21;17.40;95.30
7762;DHT22;3925;48.636;9.516;2023-03-14T08:04:49;17.70;95.40
7762;DHT22;3925;48.636;9.516;2023-03-14T08:07:18;18.20;94.10
7762;DHT22;3925;48.636;9.516;2023-03-14T08:09:44;18.40;92.40
7762;DHT22;3925;48.636;9.516;2023-03-14T08:12:11;18.50;92.80
7762;DHT22;3925;48.636;9.516;2023-03-14T08:14:38;17.60;92.50
7762;DHT22;3925;48.636;9.516;2023-03-14T08:17:05;18.20;92.60
7762;DHT22;3925;48.636;9.516;2023-03-14T08:19:33;19.30;90.40
7762;DHT22;3925;48.636;9.516;2023-03-14T08:22:00;20.70;85.90
7762;DHT22;3925;48.636;9.516;2023-03-14T08:24:29;20.60;85.30
7762;DHT22;3925;48.636;9.516;2023-03-14T08:26:56;20.10;85.30
7762;DHT22;3925;48.636;9.516;2023-03-14T08:29:23;18.70;86.20
7762;DHT22;3925;48.636;9.516;2023-03-14T08:31:50;17.80;89.20
7762;DHT22;3925;48.636;9.516;2023-03-14T08:34:17;17.10;90.90
7762;DHT22;3925;48.636;9.516;2023-03-14T08:36:44;16.70;92.20
7762;DHT22;3925;48.636;9.516;2023-03-14T08:39:11;16.10;92.90
7762;DHT22;3925;48.636;9.516;2023-03-14T08:41:39;15.40;94.30
7762;DHT22;3925;48.636;9.516;2023-03-14T08:44:08;14.90;94.60
7762;DHT22;3925;48.636;9.516;2023-03-14T08:46:35;14.30;95.80
7762;DHT22;3925;48.636;9.516;2023-03-14T08:49:02;14.30;96.20
7762;DHT22;3925;48.636;9.516;2023-03-14T08:51:29;14.20;97.40
7762;DHT22;3925;48.636;9.516;2023-03-14T08:53:56;14.40;96.80
7762;DHT22;3925;48.636;9.516;2023-03-14T08:56:23;14.50;96.10
7762;DHT22;3925;48.636;9.516;2023-03-14T08:58:51;14.60;96.20
7762;DHT22;3925;48.636;9.516;2023-03-14T09:01:18;14.70;95.80
7762;DHT22;3925;48.636;9.516;2023-03-14T09:03:46;14.80;95.90
7762;DHT22;3925;48.636;9.516;2023-03-14T09:06:13;14.60;96.40
7762;DHT22;3925;48.636;9.516;2023-03-14T09:08:43;15.10;95.60
7762;DHT22;3925;48.636;9.516;2023-03-14T09:11:11;15.10;95.80
7762;DHT22;3925;48.636;9.516;2023-03-14T09:13:38;15.10;95.60
7762;DHT22;3925;48.636;9.516;2023-03-14T09:16:08;15.00;95.40
7762;DHT22;3925;48.636;9.516;2023-03-14T09:18:35;15.40;94.50
7762;DHT22;3925;48.636;9.516;2023-03-14T09:21:02;16.60;94.50
7762;DHT22;3925;48.636;9.516;2023-03-14T09:23:29;18.40;91.90
7762;DHT22;3925;48.636;9.516;2023-03-14T09:25:56;20.20;89.00
7762;DHT22;3925;48.636;9.516;2023-03-14T09:28:23;20.30;85.60
7762;DHT22;3925;48.636;9.516;2023-03-14T09:30:50;19.60;84.20
7762;DHT22;3925;48.636;9.516;2023-03-14T09:33:19;19.30;85.70
7762;DHT22;3925;48.636;9.516;2023-03-14T09:35:46;18.40;90.60
7762;DHT22;3925;48.636;9.516;2023-03-14T09:38:12;17.50;90.30
7762;DHT22;3925;48.636;9.516;2023-03-14T09:40:40;17.30;91.50
7762;DHT22;3925;48.636;9.516;2023-03-14T09:43:10;17.20;91.40
7762;DHT22;3925;48.636;9.516;2023-03-14T09:45:40;17.00;92.70
7762;DHT22;3925;48.636;9.516;2023-03-14T09:48:15;16.60;92.70
7762;DHT22;3925;48.636;9.516;2023-03-14T09:50:46;16.50;93.00
7762;DHT22;3925;48.636;9.516;2023-03-14T09:53:17;16.50;93.70
7762;DHT22;3925;48.636;9.516;2023-03-14T09:55:45;17.80;93.20
7762;DHT22;3925;48.636;9.516;2023-03-14T09:58:16;17.90;92.30
7762;DHT22;3925;48.636;9.516;2023-03-14T10:00:44;18.90;91.00
7762;DHT22;3925;48.636;9.516;2023-03-14T10:03:24;20.30;90.20
7762;DHT22;3925;48.636;9.516;2023-03-14T10:05:55;21.30;87.60
7762;DHT22;3925;48.636;9.516;2023-03-14T10:08:22;22.00;82.20
7762;DHT22;3925;48.636;9.516;2023-03-14T10:10:49;21.00;82.90
7762;DHT22;3925;48.636;9.516;2023-03-14T10:13:18;19.50;87.10
7762;DHT22;3925;48.636;9.516;2023-03-14T10:15:50;20.50;84.80
7762;DHT22;3925;48.636;9.516;2023-03-14T10:18:18;20.50;86.60
7762;DHT22;3925;48.636;9.516;2023-03-14T10:20:46;20.10;85.80
7762;DHT22;3925;48.636;9.516;2023-03-14T10:23:24;18.50;88.50
7762;DHT22;3925;48.636;9.516;2023-03-14T10:26:05;17.20;91.00
7762;DHT22;3925;48.636;9.516;2023-03-14T10:28:34;16.30;92.40
7762;DHT22;3925;48.636;9.516;2023-03-14T10:31:04;15.80;94.10
7762;DHT22;3925;48.636;9.516;2023-03-14T10:33:33;15.50;95.00
7762;DHT22;3925;48.636;9.516;2023-03-14T10:36:01;15.20;95.70
7762;DHT22;3925;48.636;9.516;2023-03-14T10:38:31;15.20;96.60
7762;DHT22;3925;48.636;9.516;2023-03-14T10:40:59;15.10;96.20
7762;DHT22;3925;48.636;9.516;2023-03-14T10:43:30;15.50;96.50
7762;DHT22;3925;48.636;9.516;2023-03-14T10:45:59;15.90;96.50
7762;DHT22;3925;48.636;9.516;2023-03-14T10:48:32;16.50;95.00
7762;DHT22;3925;48.636;9.516;2023-03-14T10:51:05;16.60;94.20
7762;DHT22;3925;48.636;9.516;2023-03-14T10:53:49;16.40;94.50
7762;DHT22;3925;48.636;9.516;2023-03-14T10:56:18;16.00;94.50
7762;DHT22;3925;48.636;9.516;2023-03-14T10:58:47;15.90;94.40
7762;DHT22;3925;48.636;9.516;2023-03-14T11:01:36;15.60;95.40
7762;DHT22;3925;48.636;9.516;2023-03-14T11:04:13;15.50;95.80
7762;DHT22;3925;48.636;9.516;2023-03-14T11:06:44;15.20;95.60
7762;DHT22;3925;48.636;9.516;2023-03-14T11:09:20;15.30;96.40
7762;DHT22;3925;48.636;9.516;2023-03-14T11:11:49;15.40;96.80
7762;DHT22;3925;48.636;9.516;2023-03-14T11:14:23;15.40;96.40
7762;DHT22;3925;48.636;9.516;2023-03-14T11:16:59;14.90;96.50
7762;DHT22;3925;48.636;9.516;2023-03-14T11:19:42;14.80;97.30
7762;DHT22;3925;48.636;9.516;2023-03-14T11:22:20;14.70;98.00
7762;DHT22;3925;48.636;9.516;2023-03-14T11:24:59;14.40;99.80
7762;DHT22;3925;48.636;9.516;2023-03-14T11:27:38;14.00;99.90
7762;DHT22;3925;48.636;9.516;2023-03-14T11:30:17;13.50;99.90
7762;DHT22;3925;48.636;9.516;2023-03-14T11:32:47;13.50;99.90
7762;DHT22;3925;48.636;9.516;2023-03-14T11:35:24;13.50;99.90
7762;DHT22;3925;48.636;9.516;2023-03-14T11:37:54;13.30;99.90
7762;DHT22;3925;48.636;9.516;2023-03-14T11:40:27;12.90;99.90
7762;DHT22;3925;48.636;9.516;2023-03-14T11:43:10;12.70;99.90
7762;DHT22;3925;48.636;9.516;2023-03-14T11:45:39;12.60;99.90
7762;DHT22;3925;48.636;9.516;2023-03-14T11:48:16;12.50;99.90
7762;DHT22;3925;48.636;9.516;2023-03-14T11:50:47;12.10;99.90
7762;DHT22;3925;48.636;9.516;2023-03-14T11:53:18;12.00;99.90
7762;DHT22;3925;48.636;9.516;2023-03-14T11:55:47;11.90;99.90
7762;DHT22;3925;48.636;9.516;2023-03-14T11:58:19;12.10;99.90
7762;DHT22;3925;48.636;9.516;2023-03-14T12:00:48;11.90;99.90
7762;DHT22;3925;48.636;9.516;2023-03-14T12:03:21;11.80;99.90
7762;DHT22;3925;48.636;9.516;2023-03-14T12:05:58;11.70;99.90
7762;DHT22;3925;48.636;9.516;2023-03-14T12:08:37;11.60;99.90
7762;DHT22;3925;48.636;9.516;2023-03-14T12:11:11;11.60;99.90
7762;DHT22;3925;48.636;9.516;2023-03-14T12:13:39;11.60;99.90
7762;DHT22;3925;48.636;9.516;2023-03-14T12:16:17;11.60;99.90
7762;DHT22;3925;48.636;9.516;2023-03-14T12:18:46;11.60;99.90
7762;DHT22;3925;48.636;9.516;2023-03-14T12:21:13;11.60;99.90
7762;DHT22;3925;48.636;9.516;2023-03-14T12:23:43;11.60;99.90
7762;DHT22;3925;48.636;9.516;2023-03-14T12:26:17;11.60;99.90
7762;DHT22;3925;48.636;9.516;2023-03-14T12:28:50;11.70;99.90
7762;DHT22;3925;48.636;9.516;2023-03-14T12:31:41;11.70;99.90
7762;DHT22;3925;48.636;9.516;2023-03-14T12:34:29;11.50;99.90
7762;DHT22;3925;48.636;9.516;2023-03-14T12:37:05;11.50;99.90
7762;DHT22;3925;48.636;9.516;2023-03-14T12:39:43;11.50;99.90
7762;DHT22;3925;48.636;9.516;2023-03-14T12:42:17;11.40;99.90
7762;DHT22;3925;48.636;9.516;2023-03-14T12:44:48;11.40;99.90
7762;DHT22;3925;48.636;9.516;2023-03-14T12:47:49;11.40;99.90
7762;DHT22;3925;48.636;9.516;2023-03-14T12:50:24;11.50;99.90
7762;DHT22;3925;48.636;9.516;2023-03-14T12:56:25;11.50;99.90
7762;DHT22;3925;48.636;9.516;2023-03-14T12:59:17;11.40;99.90
7762;DHT22;3925;48.636;9.516;2023-03-14T13:01:53;11.40;99.90
7762;DHT22;3925;48.636;9.516;2023-03-14T13:04:27;11.30;99.90
7762;DHT22;3925;48.636;9.516;2023-03-14T13:06:55;11.30;99.90
7762;DHT22;3925;48.636;9.516;2023-03-14T13:12:28;11.20;99.90
7762;DHT22;3925;48.636;9.516;2023-03-14T13:15:00;11.30;99.90
7762;DHT22;3925;48.636;9.516;2023-03-14T13:17:31;11.40;99.90
7762;DHT22;3925;48.636;9.516;2023-03-14T13:20:00;11.70;99.90
7762;DHT22;3925;48.636;9.516;2023-03-14T13:22:33;12.00;99.90
7762;DHT22;3925;48.636;9.516;2023-03-14T13:25:04;12.10;98.80
7762;DHT22;3925;48.636;9.516;2023-03-14T13:27:33;12.20;98.40
7762;DHT22;3925;48.636;9.516;2023-03-14T13:30:19;12.10;98.40
7762;DHT22;3925;48.636;9.516;2023-03-14T13:32:48;11.60;99.00
7762;DHT22;3925;48.636;9.516;2023-03-14T13:35:17;11.40;98.20
7762;DHT22;3925;48.636;9.516;2023-03-14T13:37:45;11.10;99.60
7762;DHT22;3925;48.636;9.516;2023-03-14T13:40:20;11.00;99.50
7762;DHT22;3925;48.636;9.516;2023-03-14T13:43:00;11.00;99.40
7762;DHT22;3925;48.636;9.516;2023-03-14T13:45:29;11.20;99.90
7762;DHT22;3925;48.636;9.516;2023-03-14T13:47:56;11.30;98.90
7762;DHT22;3925;48.636;9.516;2023-03-14T13:50:23;11.40;97.70
7762;DHT22;3925;48.636;9.516;2023-03-14T13:52:55;11.20;97.20
7762;DHT22;3925;48.636;9.516;2023-03-14T13:55:22;11.10;98.10
7762;DHT22;3925;48.636;9.516;2023-03-14T13:57:51;11.00;97.50
7762;DHT22;3925;48.636;9.516;2023-03-14T14:00:21;10.80;97.30
7762;DHT22;3925;48.636;9.516;2023-03-14T14:02:53;10.60;97.30
7762;DHT22;3925;48.636;9.516;2023-03-14T14:05:21;10.40;97.50
7762;DHT22;3925;48.636;9.516;2023-03-14T14:07:49;10.20;97.80
7762;DHT22;3925;48.636;9.516;2023-03-14T14:10:17;10.00;96.50
7762;DHT22;3925;48.636;9.516;2023-03-14T14:12:47;9.80;97.20
7762;DHT22;3925;48.636;9.516;2023-03-14T14:15:19;9.70;97.30
7762;DHT22;3925;48.636;9.516;2023-03-14T14:17:50;9.70;97.90
7762;DHT22;3925;48.636;9.516;2023-03-14T14:20:23;9.80;98.10
7762;DHT22;3925;48.636;9.516;2023-03-14T14:22:58;9.80;97.40
7762;DHT22;3925;48.636;9.516;2023-03-14T14:25:26;9.80;97.40
7762;DHT22;3925;48.636;9.516;2023-03-14T14:27:54;9.80;97.70
7762;DHT22;3925;48.636;9.516;2023-03-14T14:30:30;9.80;96.60
7762;DHT22;3925;48.636;9.516;2023-03-14T14:33:16;9.60;96.40
7762;DHT22;3925;48.636;9.516;2023-03-14T14:35:51;9.70;95.70
7762;DHT22;3925;48.636;9.516;2023-03-14T14:38:19;9.70;96.80
7762;DHT22;3925;48.636;9.516;2023-03-14T14:40:49;9.80;96.40
7762;DHT22;3925;48.636;9.516;2023-03-14T14:43:19;9.80;96.20
7762;DHT22;3925;48.636;9.516;2023-03-14T14:45:49;9.80;95.80
7762;DHT22;3925;48.636;9.516;2023-03-14T14:48:20;9.90;96.00
7762;DHT22;3925;48.636;9.516;2023-03-14T14:50:56;10.00;95.00
7762;DHT22;3925;48.636;9.516;2023-03-14T14:53:27;10.00;94.60
7762;DHT22;3925;48.636;9.516;2023-03-14T14:55:56;9.90;93.90
7762;DHT22;3925;48.636;9.516;2023-03-14T14:58:25;9.80;94.00
7762;DHT22;3925;48.636;9.516;2023-03-14T15:00:56;9.60;93.80
7762;DHT22;3925;48.636;9.516;2023-03-14T15:03:26;9.60;93.60
7762;DHT22;3925;48.636;9.516;2023-03-14T15:05:55;9.60;93.70
7762;DHT22;3925;48.636;9.516;2023-03-14T15:08:24;9.60;93.10
7762;DHT22;3925;48.636;9.516;2023-03-14T15:10:52;9.50;93.90
7762;DHT22;3925;48.636;9.516;2023-03-14T15:13:19;9.40;92.70
7762;DHT22;3925;48.636;9.516;2023-03-14T15:15:46;9.40;93.30
7762;DHT22;3925;48.636;9.516;2023-03-14T15:18:15;9.30;92.90
7762;DHT22;3925;48.636;9.516;2023-03-14T15:20:42;9.30;92.90
7762;DHT22;3925;48.636;9.516;2023-03-14T15:23:15;9.20;93.00
7762;DHT22;3925;48.636;9.516;2023-03-14T15:25:43;9.20;92.70
7762;DHT22;3925;48.636;9.516;2023-03-14T15:28:14;9.20;93.50
7762;DHT22;3925;48.636;9.516;2023-03-14T15:30:42;9.30;92.70
7762;DHT22;3925;48.636;9.516;2023-03-14T15:33:09;9.30;93.30
7762;DHT22;3925;48.636;9.516;2023-03-14T15:35:36;9.50;93.60
7762;DHT22;3925;48.636;9.516;2023-03-14T15:38:04;9.50;92.70
7762;DHT22;3925;48.636;9.516;2023-03-14T15:40:32;9.60;92.90
7762;DHT22;3925;48.636;9.516;2023-03-14T15:42:59;9.70;92.70
7762;DHT22;3925;48.636;9.516;2023-03-14T15:45:26;10.00;92.70
7762;DHT22;3925;48.636;9.516;2023-03-14T15:47:53;10.00;91.50
7762;DHT22;3925;48.636;9.516;2023-03-14T15:50:20;10.00;92.00
7762;DHT22;3925;48.636;9.516;2023-03-14T15:52:47;9.90;92.60
7762;DHT22;3925;48.636;9.516;2023-03-14T15:55:14;9.90;92.60
7762;DHT22;3925;48.636;9.516;2023-03-14T15:57:43;9.80;92.70
7762;DHT22;3925;48.636;9.516;2023-03-14T16:00:13;9.70;92.10
7762;DHT22;3925;48.636;9.516;2023-03-14T16:02:40;9.50;92.20
7762;DHT22;3925;48.636;9.516;2023-03-14T16:05:08;9.40;92.20
7762;DHT22;3925;48.636;9.516;2023-03-14T16:07:36;9.30;93.20
7762;DHT22;3925;48.636;9.516;2023-03-14T16:10:03;9.20;93.10
7762;DHT22;3925;48.636;9.516;2023-03-14T16:12:31;9.10;93.60
7762;DHT22;3925;48.636;9.516;2023-03-14T16:14:59;9.20;94.00
7762;DHT22;3925;48.636;9.516;2023-03-14T16:17:26;9.20;94.00
7762;DHT22;3925;48.636;9.516;2023-03-14T16:19:53;9.00;94.50
7762;DHT22;3925;48.636;9.516;2023-03-14T16:22:20;9.00;94.40
7762;DHT22;3925;48.636;9.516;2023-03-14T16:24:47;9.00;94.20
7762;DHT22;3925;48.636;9.516;2023-03-14T16:27:14;8.90;94.80